sensor_id;sensor_type;location;lat;lon;timestamp;P1;durP1;ratioP1;P2;durP2;ratioP2
9799;SDS011;4939;52.00085300;4.17406100;2023-04-25T00:01:17;11.70;;;1.83;;
9799;SDS011;4939;52.00085300;4.17406100;2023-04-25T00:03:44;10.90;;;2.58;;
9799;SDS011;4939;52.00085300;4.17406100;2023-04-25T00:06:11;10.63;;;2.33;;
9799;SDS011;4939;52.00085300;4.17406100;2023-04-25T00:08:37;12.73;;;2.40;;
9799;SDS011;4939;52.00085300;4.17406100;2023-04-25T00:11:03;12.65;;;2.65;;
9799;SDS011;4939;52.00085300;4.17406100;2023-04-25T00:13:29;14.15;;;2.13;;
9799;SDS011;4939;52.00085300;4.17406100;2023-04-25T00:15:55;13.10;;;2.97;;
9799;SDS011;4939;52.00085300;4.17406100;2023-04-25T00:18:25;10.88;;;2.40;;
9799;SDS011;4939;52.00085300;4.17406100;2023-04-25T00:20:54;12.52;;;2.50;;
9799;SDS011;4939;52.00085300;4.17406100;2023-04-25T00:23:20;14.02;;;2.30;;
9799;SDS011;4939;52.00085300;4.17406100;2023-04-25T00:25:47;14.55;;;3.28;;
9799;SDS011;4939;52.00085300;4.17406100;2023-04-25T00:28:14;9.90;;;2.10;;
9799;SDS011;4939;52.00085300;4.17406100;2023-04-25T00:30:40;9.30;;;2.47;;
9799;SDS011;4939;52.00085300;4.17406100;2023-04-25T00:33:07;13.45;;;3.42;;
9799;SDS011;4939;52.00085300;4.17406100;2023-04-25T00:35:34;13.13;;;2.50;;
9799;SDS011;4939;52.00085300;4.17406100;2023-04-25T00:38:00;14.02;;;2.33;;
9799;SDS011;4939;52.00085300;4.17406100;2023-04-25T00:40:26;13.43;;;2.63;;
9799;SDS011;4939;52.00085300;4.17406100;2023-04-25T00:42:52;14.23;;;2.08;;
9799;SDS011;4939;52.00085300;4.17406100;2023-04-25T00:45:18;11.68;;;2.38;;
9799;SDS011;4939;52.00085300;4.17406100;2023-04-25T00:47:45;12.90;;;2.20;;
9799;SDS011;4939;52.00085300;4.17406100;2023-04-25T00:50:13;9.23;;;2.20;;
9799;SDS011;4939;52.00085300;4.17406100;2023-04-25T00:52:40;8.68;;;1.65;;
9799;SDS011;4939;52.00085300;4.17406100;2023-04-25T00:55:08;10.82;;;2.63;;
9799;SDS011;4939;52.00085300;4.17406100;2023-04-25T00:57:35;10.70;;;1.98;;
9799;SDS011;4939;52.00085300;4.17406100;2023-04-25T01:00:02;8.75;;;1.90;;
9799;SDS011;4939;52.00085300;4.17406100;2023-04-25T01:02:31;14.48;;;2.30;;
9799;SDS011;4939;52.00085300;4.17406100;2023-04-25T01:04:58;9.55;;;2.33;;
9799;SDS011;4939;52.00085300;4.17406100;2023-04-25T01:07:24;6.00;;;2.70;;
9799;SDS011;4939;52.00085300;4.17406100;2023-04-25T01:09:53;11.32;;;1.95;;
9799;SDS011;4939;52.00085300;4.17406100;2023-04-25T01:12:20;7.63;;;1.92;;
9799;SDS011;4939;52.00085300;4.17406100;2023-04-25T01:14:46;11.13;;;2.28;;
9799;SDS011;4939;52.00085300;4.17406100;2023-04-25T01:17:12;13.70;;;2.17;;
9799;SDS011;4939;52.00085300;4.17406100;2023-04-25T01:19:38;10.43;;;2.03;;
9799;SDS011;4939;52.00085300;4.17406100;2023-04-25T01:22:04;8.27;;;1.52;;
9799;SDS011;4939;52.00085300;4.17406100;2023-04-25T01:24:31;11.52;;;1.70;;
9799;SDS011;4939;52.00085300;4.17406100;2023-04-25T01:26:57;7.72;;;1.60;;
9799;SDS011;4939;52.00085300;4.17406100;2023-04-25T01:29:24;6.93;;;1.45;;
9799;SDS011;4939;52.00085300;4.17406100;2023-04-25T01:31:51;7.47;;;1.40;;
9799;SDS011;4939;52.00085300;4.17406100;2023-04-25T01:34:17;8.63;;;2.22;;
9799;SDS011;4939;52.00085300;4.17406100;2023-04-25T01:36:44;9.57;;;2.10;;
9799;SDS011;4939;52.00085300;4.17406100;2023-04-25T01:39:09;6.43;;;1.90;;
9799;SDS011;4939;52.00085300;4.17406100;2023-04-25T01:41:35;11.10;;;1.48;;
9799;SDS011;4939;52.00085300;4.17406100;2023-04-25T01:44:02;14.77;;;2.00;;
9799;SDS011;4939;52.00085300;4.17406100;2023-04-25T01:46:28;6.93;;;1.45;;
9799;SDS011;4939;52.00085300;4.17406100;2023-04-25T01:48:55;8.13;;;2.10;;
9799;SDS011;4939;52.00085300;4.17406100;2023-04-25T01:51:21;8.02;;;1.70;;
9799;SDS011;4939;52.00085300;4.17406100;2023-04-25T01:53:47;12.85;;;2.30;;
9799;SDS011;4939;52.00085300;4.17406100;2023-04-25T01:56:13;8.77;;;1.95;;
9799;SDS011;4939;52.00085300;4.17406100;2023-04-25T01:58:38;11.52;;;1.98;;
9799;SDS011;4939;52.00085300;4.17406100;2023-04-25T02:01:04;13.35;;;2.30;;
9799;SDS011;4939;52.00085300;4.17406100;2023-04-25T02:03:31;11.10;;;2.40;;
9799;SDS011;4939;52.00085300;4.17406100;2023-04-25T02:05:57;12.10;;;2.40;;
9799;SDS011;4939;52.00085300;4.17406100;2023-04-25T02:08:23;15.18;;;2.53;;
9799;SDS011;4939;52.00085300;4.17406100;2023-04-25T02:10:51;14.60;;;2.42;;
9799;SDS011;4939;52.00085300;4.17406100;2023-04-25T02:13:16;11.90;;;2.10;;
9799;SDS011;4939;52.00085300;4.17406100;2023-04-25T02:15:42;13.57;;;1.95;;
9799;SDS011;4939;52.00085300;4.17406100;2023-04-25T02:18:08;11.05;;;2.20;;
9799;SDS011;4939;52.00085300;4.17406100;2023-04-25T02:20:35;17.38;;;2.80;;
9799;SDS011;4939;52.00085300;4.17406100;2023-04-25T02:23:02;14.93;;;2.90;;
9799;SDS011;4939;52.00085300;4.17406100;2023-04-25T02:25:28;10.00;;;2.08;;
9799;SDS011;4939;52.00085300;4.17406100;2023-04-25T02:27:54;13.27;;;2.20;;
9799;SDS011;4939;52.00085300;4.17406100;2023-04-25T02:30:20;14.07;;;2.25;;
9799;SDS011;4939;52.00085300;4.17406100;2023-04-25T02:32:46;10.88;;;2.38;;
9799;SDS011;4939;52.00085300;4.17406100;2023-04-25T02:35:12;12.25;;;1.90;;
9799;SDS011;4939;52.00085300;4.17406100;2023-04-25T02:37:38;12.73;;;1.80;;
9799;SDS011;4939;52.00085300;4.17406100;2023-04-25T02:40:05;6.10;;;1.48;;
9799;SDS011;4939;52.00085300;4.17406100;2023-04-25T02:42:32;8.18;;;1.50;;
9799;SDS011;4939;52.00085300;4.17406100;2023-04-25T02:44:58;11.57;;;1.77;;
9799;SDS011;4939;52.00085300;4.17406100;2023-04-25T02:47:23;8.80;;;1.38;;
9799;SDS011;4939;52.00085300;4.17406100;2023-04-25T02:49:50;13.57;;;1.27;;
9799;SDS011;4939;52.00085300;4.17406100;2023-04-25T02:52:15;10.15;;;1.88;;
9799;SDS011;4939;52.00085300;4.17406100;2023-04-25T02:54:41;11.23;;;1.40;;
9799;SDS011;4939;52.00085300;4.17406100;2023-04-25T02:57:07;10.02;;;1.48;;
9799;SDS011;4939;52.00085300;4.17406100;2023-04-25T02:59:33;8.30;;;1.35;;
9799;SDS011;4939;52.00085300;4.17406100;2023-04-25T03:01:59;7.60;;;1.40;;
9799;SDS011;4939;52.00085300;4.17406100;2023-04-25T03:04:25;5.85;;;1.15;;
9799;SDS011;4939;52.00085300;4.17406100;2023-04-25T03:06:51;7.88;;;1.20;;
9799;SDS011;4939;52.00085300;4.17406100;2023-04-25T03:09:17;6.10;;;1.20;;
9799;SDS011;4939;52.00085300;4.17406100;2023-04-25T03:11:43;18.42;;;1.88;;
9799;SDS011;4939;52.00085300;4.17406100;2023-04-25T03:14:10;7.05;;;1.30;;
9799;SDS011;4939;52.00085300;4.17406100;2023-04-25T03:16:35;5.25;;;1.02;;
9799;SDS011;4939;52.00085300;4.17406100;2023-04-25T03:19:02;4.90;;;1.30;;
9799;SDS011;4939;52.00085300;4.17406100;2023-04-25T03:21:28;7.75;;;1.63;;
9799;SDS011;4939;52.00085300;4.17406100;2023-04-25T03:23:54;6.85;;;1.50;;
9799;SDS011;4939;52.00085300;4.17406100;2023-04-25T03:26:20;8.15;;;1.48;;
9799;SDS011;4939;52.00085300;4.17406100;2023-04-25T03:28:46;10.40;;;1.83;;
9799;SDS011;4939;52.00085300;4.17406100;2023-04-25T03:31:12;11.30;;;1.88;;
9799;SDS011;4939;52.00085300;4.17406100;2023-04-25T03:33:37;9.18;;;1.70;;
9799;SDS011;4939;52.00085300;4.17406100;2023-04-25T03:36:03;7.93;;;1.70;;
9799;SDS011;4939;52.00085300;4.17406100;2023-04-25T03:38:29;9.85;;;1.98;;
9799;SDS011;4939;52.00085300;4.17406100;2023-04-25T03:40:55;13.70;;;2.20;;
9799;SDS011;4939;52.00085300;4.17406100;2023-04-25T03:43:21;11.20;;;1.95;;
9799;SDS011;4939;52.00085300;4.17406100;2023-04-25T03:45:47;8.00;;;1.95;;
9799;SDS011;4939;52.00085300;4.17406100;2023-04-25T03:48:13;9.38;;;1.60;;
9799;SDS011;4939;52.00085300;4.17406100;2023-04-25T03:50:38;9.05;;;1.75;;
9799;SDS011;4939;52.00085300;4.17406100;2023-04-25T03:53:04;9.57;;;1.60;;
9799;SDS011;4939;52.00085300;4.17406100;2023-04-25T03:55:30;9.40;;;1.80;;
9799;SDS011;4939;52.00085300;4.17406100;2023-04-25T03:57:57;10.23;;;1.45;;
9799;SDS011;4939;52.00085300;4.17406100;2023-04-25T04:00:23;6.45;;;1.67;;
9799;SDS011;4939;52.00085300;4.17406100;2023-04-25T04:02:50;7.35;;;1.30;;
9799;SDS011;4939;52.00085300;4.17406100;2023-04-25T04:05:16;4.97;;;1.13;;
9799;SDS011;4939;52.00085300;4.17406100;2023-04-25T04:07:41;8.48;;;1.58;;
9799;SDS011;4939;52.00085300;4.17406100;2023-04-25T04:10:08;11.73;;;1.70;;
9799;SDS011;4939;52.00085300;4.17406100;2023-04-25T04:12:37;10.20;;;1.70;;
9799;SDS011;4939;52.00085300;4.17406100;2023-04-25T04:15:04;12.68;;;1.77;;
9799;SDS011;4939;52.00085300;4.17406100;2023-04-25T04:17:31;9.75;;;1.63;;
9799;SDS011;4939;52.00085300;4.17406100;2023-04-25T04:19:57;7.93;;;1.27;;
9799;SDS011;4939;52.00085300;4.17406100;2023-04-25T04:22:23;11.98;;;2.08;;
9799;SDS011;4939;52.00085300;4.17406100;2023-04-25T04:24:49;7.80;;;1.52;;
9799;SDS011;4939;52.00085300;4.17406100;2023-04-25T04:27:17;8.43;;;1.30;;
9799;SDS011;4939;52.00085300;4.17406100;2023-04-25T04:29:44;8.77;;;1.65;;
9799;SDS011;4939;52.00085300;4.17406100;2023-04-25T04:32:12;4.75;;;1.40;;
9799;SDS011;4939;52.00085300;4.17406100;2023-04-25T04:34:39;10.43;;;1.70;;
9799;SDS011;4939;52.00085300;4.17406100;2023-04-25T04:37:10;6.80;;;1.95;;
9799;SDS011;4939;52.00085300;4.17406100;2023-04-25T04:39:38;8.73;;;1.50;;
9799;SDS011;4939;52.00085300;4.17406100;2023-04-25T04:42:04;4.65;;;1.42;;
9799;SDS011;4939;52.00085300;4.17406100;2023-04-25T04:44:30;7.82;;;1.30;;
9799;SDS011;4939;52.00085300;4.17406100;2023-04-25T04:47:00;7.22;;;1.70;;
9799;SDS011;4939;52.00085300;4.17406100;2023-04-25T04:49:27;12.73;;;1.40;;
9799;SDS011;4939;52.00085300;4.17406100;2023-04-25T04:51:53;10.38;;;1.33;;
9799;SDS011;4939;52.00085300;4.17406100;2023-04-25T04:54:19;7.20;;;1.10;;
9799;SDS011;4939;52.00085300;4.17406100;2023-04-25T04:56:45;11.00;;;1.42;;
9799;SDS011;4939;52.00085300;4.17406100;2023-04-25T04:59:11;11.65;;;1.50;;
9799;SDS011;4939;52.00085300;4.17406100;2023-04-25T05:01:37;13.88;;;2.25;;
9799;SDS011;4939;52.00085300;4.17406100;2023-04-25T05:04:02;11.13;;;1.38;;
9799;SDS011;4939;52.00085300;4.17406100;2023-04-25T05:06:29;8.23;;;1.88;;
9799;SDS011;4939;52.00085300;4.17406100;2023-04-25T05:08:56;9.35;;;1.55;;
9799;SDS011;4939;52.00085300;4.17406100;2023-04-25T05:11:23;9.07;;;1.30;;
9799;SDS011;4939;52.00085300;4.17406100;2023-04-25T05:13:49;7.90;;;1.00;;
9799;SDS011;4939;52.00085300;4.17406100;2023-04-25T05:16:17;7.20;;;1.00;;
9799;SDS011;4939;52.00085300;4.17406100;2023-04-25T05:18:42;8.15;;;1.00;;
9799;SDS011;4939;52.00085300;4.17406100;2023-04-25T05:21:08;6.00;;;1.52;;
9799;SDS011;4939;52.00085300;4.17406100;2023-04-25T05:23:34;5.35;;;1.10;;
9799;SDS011;4939;52.00085300;4.17406100;2023-04-25T05:26:00;4.20;;;1.00;;
9799;SDS011;4939;52.00085300;4.17406100;2023-04-25T05:28:26;6.50;;;0.95;;
9799;SDS011;4939;52.00085300;4.17406100;2023-04-25T05:30:51;11.80;;;1.35;;
9799;SDS011;4939;52.00085300;4.17406100;2023-04-25T05:33:17;6.82;;;1.30;;
9799;SDS011;4939;52.00085300;4.17406100;2023-04-25T05:35:43;3.58;;;0.93;;
9799;SDS011;4939;52.00085300;4.17406100;2023-04-25T05:38:09;5.85;;;1.13;;
9799;SDS011;4939;52.00085300;4.17406100;2023-04-25T05:40:35;9.00;;;1.30;;
9799;SDS011;4939;52.00085300;4.17406100;2023-04-25T05:43:01;9.23;;;1.27;;
9799;SDS011;4939;52.00085300;4.17406100;2023-04-25T05:45:27;7.93;;;1.08;;
9799;SDS011;4939;52.00085300;4.17406100;2023-04-25T05:47:52;5.53;;;0.82;;
9799;SDS011;4939;52.00085300;4.17406100;2023-04-25T05:50:18;6.82;;;1.23;;
9799;SDS011;4939;52.00085300;4.17406100;2023-04-25T05:52:44;5.60;;;1.30;;
9799;SDS011;4939;52.00085300;4.17406100;2023-04-25T05:55:09;4.57;;;1.00;;
9799;SDS011;4939;52.00085300;4.17406100;2023-04-25T05:57:35;4.70;;;1.10;;
9799;SDS011;4939;52.00085300;4.17406100;2023-04-25T06:00:01;14.18;;;1.50;;
9799;SDS011;4939;52.00085300;4.17406100;2023-04-25T06:02:28;6.47;;;1.27;;
9799;SDS011;4939;52.00085300;4.17406100;2023-04-25T06:04:53;5.85;;;1.20;;
9799;SDS011;4939;52.00085300;4.17406100;2023-04-25T06:07:19;4.03;;;1.00;;
9799;SDS011;4939;52.00085300;4.17406100;2023-04-25T06:09:45;6.05;;;1.00;;
9799;SDS011;4939;52.00085300;4.17406100;2023-04-25T06:12:11;4.50;;;0.80;;
9799;SDS011;4939;52.00085300;4.17406100;2023-04-25T06:14:37;4.93;;;1.00;;
9799;SDS011;4939;52.00085300;4.17406100;2023-04-25T06:17:03;6.07;;;1.08;;
9799;SDS011;4939;52.00085300;4.17406100;2023-04-25T06:19:33;5.53;;;0.93;;
9799;SDS011;4939;52.00085300;4.17406100;2023-04-25T06:22:00;3.58;;;0.75;;
9799;SDS011;4939;52.00085300;4.17406100;2023-04-25T06:24:28;5.40;;;0.90;;
9799;SDS011;4939;52.00085300;4.17406100;2023-04-25T06:26:54;4.93;;;1.20;;
9799;SDS011;4939;52.00085300;4.17406100;2023-04-25T06:29:20;9.82;;;1.45;;
9799;SDS011;4939;52.00085300;4.17406100;2023-04-25T06:31:45;6.50;;;1.00;;
9799;SDS011;4939;52.00085300;4.17406100;2023-04-25T06:34:11;5.15;;;0.70;;
9799;SDS011;4939;52.00085300;4.17406100;2023-04-25T06:36:37;4.10;;;0.50;;
9799;SDS011;4939;52.00085300;4.17406100;2023-04-25T06:39:03;5.15;;;0.85;;
9799;SDS011;4939;52.00085300;4.17406100;2023-04-25T06:41:29;6.82;;;1.15;;
9799;SDS011;4939;52.00085300;4.17406100;2023-04-25T06:43:55;6.53;;;1.00;;
9799;SDS011;4939;52.00085300;4.17406100;2023-04-25T06:46:20;5.25;;;0.80;;
9799;SDS011;4939;52.00085300;4.17406100;2023-04-25T06:48:46;5.35;;;0.90;;
9799;SDS011;4939;52.00085300;4.17406100;2023-04-25T06:51:12;7.05;;;1.25;;
9799;SDS011;4939;52.00085300;4.17406100;2023-04-25T06:53:41;2.88;;;0.80;;
9799;SDS011;4939;52.00085300;4.17406100;2023-04-25T06:56:06;5.38;;;0.95;;
9799;SDS011;4939;52.00085300;4.17406100;2023-04-25T06:58:43;4.80;;;0.50;;
9799;SDS011;4939;52.00085300;4.17406100;2023-04-25T07:01:09;6.60;;;1.23;;
9799;SDS011;4939;52.00085300;4.17406100;2023-04-25T07:03:35;7.13;;;1.42;;
9799;SDS011;4939;52.00085300;4.17406100;2023-04-25T07:06:02;4.63;;;1.05;;
9799;SDS011;4939;52.00085300;4.17406100;2023-04-25T07:08:28;7.50;;;0.98;;
9799;SDS011;4939;52.00085300;4.17406100;2023-04-25T07:10:54;6.78;;;0.70;;
9799;SDS011;4939;52.00085300;4.17406100;2023-04-25T07:13:20;4.72;;;0.70;;
9799;SDS011;4939;52.00085300;4.17406100;2023-04-25T07:15:46;7.30;;;0.80;;
9799;SDS011;4939;52.00085300;4.17406100;2023-04-25T07:18:13;5.68;;;1.05;;
9799;SDS011;4939;52.00085300;4.17406100;2023-04-25T07:20:39;6.47;;;0.80;;
9799;SDS011;4939;52.00085300;4.17406100;2023-04-25T07:23:04;3.33;;;0.90;;
9799;SDS011;4939;52.00085300;4.17406100;2023-04-25T07:25:30;4.22;;;0.80;;
9799;SDS011;4939;52.00085300;4.17406100;2023-04-25T07:27:56;5.97;;;1.02;;
9799;SDS011;4939;52.00085300;4.17406100;2023-04-25T07:30:22;4.90;;;0.65;;
9799;SDS011;4939;52.00085300;4.17406100;2023-04-25T07:32:48;5.18;;;0.90;;
9799;SDS011;4939;52.00085300;4.17406100;2023-04-25T07:35:16;4.68;;;0.57;;
9799;SDS011;4939;52.00085300;4.17406100;2023-04-25T07:37:42;5.90;;;0.60;;
9799;SDS011;4939;52.00085300;4.17406100;2023-04-25T07:40:08;1.08;;;0.43;;
9799;SDS011;4939;52.00085300;4.17406100;2023-04-25T07:42:35;3.17;;;0.63;;
9799;SDS011;4939;52.00085300;4.17406100;2023-04-25T07:45:01;4.82;;;0.57;;
9799;SDS011;4939;52.00085300;4.17406100;2023-04-25T07:47:28;5.68;;;0.82;;
9799;SDS011;4939;52.00085300;4.17406100;2023-04-25T07:49:54;9.13;;;0.98;;
9799;SDS011;4939;52.00085300;4.17406100;2023-04-25T07:52:19;6.15;;;1.00;;
9799;SDS011;4939;52.00085300;4.17406100;2023-04-25T07:54:46;3.40;;;0.60;;
9799;SDS011;4939;52.00085300;4.17406100;2023-04-25T07:57:13;6.40;;;0.90;;
9799;SDS011;4939;52.00085300;4.17406100;2023-04-25T07:59:39;5.45;;;0.98;;
9799;SDS011;4939;52.00085300;4.17406100;2023-04-25T08:02:05;3.75;;;0.82;;
9799;SDS011;4939;52.00085300;4.17406100;2023-04-25T08:04:30;4.70;;;1.02;;
9799;SDS011;4939;52.00085300;4.17406100;2023-04-25T08:06:56;5.32;;;0.60;;
9799;SDS011;4939;52.00085300;4.17406100;2023-04-25T08:09:22;5.50;;;0.80;;
9799;SDS011;4939;52.00085300;4.17406100;2023-04-25T08:11:48;6.70;;;0.90;;
9799;SDS011;4939;52.00085300;4.17406100;2023-04-25T08:14:14;4.93;;;0.70;;
9799;SDS011;4939;52.00085300;4.17406100;2023-04-25T08:16:40;2.65;;;0.60;;
9799;SDS011;4939;52.00085300;4.17406100;2023-04-25T08:19:07;4.53;;;0.70;;
9799;SDS011;4939;52.00085300;4.17406100;2023-04-25T08:21:32;2.38;;;0.50;;
9799;SDS011;4939;52.00085300;4.17406100;2023-04-25T08:23:58;4.32;;;0.60;;
9799;SDS011;4939;52.00085300;4.17406100;2023-04-25T08:26:24;2.58;;;0.43;;
9799;SDS011;4939;52.00085300;4.17406100;2023-04-25T08:28:50;3.00;;;0.73;;
9799;SDS011;4939;52.00085300;4.17406100;2023-04-25T08:31:16;3.75;;;0.70;;
9799;SDS011;4939;52.00085300;4.17406100;2023-04-25T08:33:42;5.45;;;0.80;;
9799;SDS011;4939;52.00085300;4.17406100;2023-04-25T08:36:07;4.32;;;0.80;;
9799;SDS011;4939;52.00085300;4.17406100;2023-04-25T08:38:33;2.90;;;0.65;;
9799;SDS011;4939;52.00085300;4.17406100;2023-04-25T08:40:59;6.88;;;0.80;;
9799;SDS011;4939;52.00085300;4.17406100;2023-04-25T08:43:26;8.65;;;0.73;;
9799;SDS011;4939;52.00085300;4.17406100;2023-04-25T08:45:57;8.48;;;0.70;;
9799;SDS011;4939;52.00085300;4.17406100;2023-04-25T08:48:25;5.55;;;0.55;;
9799;SDS011;4939;52.00085300;4.17406100;2023-04-25T08:50:53;3.10;;;0.60;;
9799;SDS011;4939;52.00085300;4.17406100;2023-04-25T08:53:26;3.92;;;0.65;;
9799;SDS011;4939;52.00085300;4.17406100;2023-04-25T08:55:57;3.75;;;0.90;;
9799;SDS011;4939;52.00085300;4.17406100;2023-04-25T08:58:24;7.68;;;0.82;;
9799;SDS011;4939;52.00085300;4.17406100;2023-04-25T09:00:50;8.68;;;0.90;;
9799;SDS011;4939;52.00085300;4.17406100;2023-04-25T09:03:16;4.05;;;0.60;;
9799;SDS011;4939;52.00085300;4.17406100;2023-04-25T09:05:42;7.45;;;0.98;;
9799;SDS011;4939;52.00085300;4.17406100;2023-04-25T09:08:08;4.78;;;1.00;;
9799;SDS011;4939;52.00085300;4.17406100;2023-04-25T09:10:34;3.95;;;0.68;;
9799;SDS011;4939;52.00085300;4.17406100;2023-04-25T09:13:04;6.47;;;0.75;;
9799;SDS011;4939;52.00085300;4.17406100;2023-04-25T09:15:46;6.75;;;0.80;;
9799;SDS011;4939;52.00085300;4.17406100;2023-04-25T09:18:23;4.38;;;0.80;;
9799;SDS011;4939;52.00085300;4.17406100;2023-04-25T09:20:51;9.25;;;1.45;;
9799;SDS011;4939;52.00085300;4.17406100;2023-04-25T09:23:21;3.97;;;0.57;;
9799;SDS011;4939;52.00085300;4.17406100;2023-04-25T09:25:51;6.25;;;0.80;;
9799;SDS011;4939;52.00085300;4.17406100;2023-04-25T09:28:25;2.25;;;0.40;;
9799;SDS011;4939;52.00085300;4.17406100;2023-04-25T09:30:55;6.70;;;0.90;;
9799;SDS011;4939;52.00085300;4.17406100;2023-04-25T09:33:28;5.57;;;0.60;;
9799;SDS011;4939;52.00085300;4.17406100;2023-04-25T09:36:01;5.50;;;0.80;;
9799;SDS011;4939;52.00085300;4.17406100;2023-04-25T09:38:28;5.38;;;0.60;;
9799;SDS011;4939;52.00085300;4.17406100;2023-04-25T09:40:56;3.35;;;0.63;;
9799;SDS011;4939;52.00085300;4.17406100;2023-04-25T09:43:23;3.42;;;0.60;;
9799;SDS011;4939;52.00085300;4.17406100;2023-04-25T09:45:50;7.38;;;0.70;;
9799;SDS011;4939;52.00085300;4.17406100;2023-04-25T09:48:18;3.92;;;0.63;;
9799;SDS011;4939;52.00085300;4.17406100;2023-04-25T09:53:30;3.13;;;1.00;;
9799;SDS011;4939;52.00085300;4.17406100;2023-04-25T09:55:58;3.83;;;0.60;;
9799;SDS011;4939;52.00085300;4.17406100;2023-04-25T09:58:25;7.50;;;0.90;;
9799;SDS011;4939;52.00085300;4.17406100;2023-04-25T10:00:55;4.45;;;0.80;;
9799;SDS011;4939;52.00085300;4.17406100;2023-04-25T10:03:25;6.43;;;1.02;;
9799;SDS011;4939;52.00085300;4.17406100;2023-04-25T10:05:51;4.30;;;0.63;;
9799;SDS011;4939;52.00085300;4.17406100;2023-04-25T10:08:19;9.70;;;0.90;;
9799;SDS011;4939;52.00085300;4.17406100;2023-04-25T10:10:45;2.42;;;0.65;;
9799;SDS011;4939;52.00085300;4.17406100;2023-04-25T10:13:13;5.95;;;0.90;;
9799;SDS011;4939;52.00085300;4.17406100;2023-04-25T10:15:39;6.53;;;1.38;;
9799;SDS011;4939;52.00085300;4.17406100;2023-04-25T10:18:06;5.35;;;0.70;;
9799;SDS011;4939;52.00085300;4.17406100;2023-04-25T10:20:32;7.22;;;1.35;;
9799;SDS011;4939;52.00085300;4.17406100;2023-04-25T10:22:58;6.35;;;0.65;;
9799;SDS011;4939;52.00085300;4.17406100;2023-04-25T10:25:34;6.75;;;0.90;;
9799;SDS011;4939;52.00085300;4.17406100;2023-04-25T10:28:00;6.85;;;1.15;;
9799;SDS011;4939;52.00085300;4.17406100;2023-04-25T10:30:27;7.32;;;0.88;;
9799;SDS011;4939;52.00085300;4.17406100;2023-04-25T10:32:54;3.50;;;1.00;;
9799;SDS011;4939;52.00085300;4.17406100;2023-04-25T10:35:24;3.58;;;0.77;;
9799;SDS011;4939;52.00085300;4.17406100;2023-04-25T10:37:58;7.32;;;1.10;;
9799;SDS011;4939;52.00085300;4.17406100;2023-04-25T10:40:24;2.45;;;0.57;;
9799;SDS011;4939;52.00085300;4.17406100;2023-04-25T10:42:53;7.50;;;1.00;;
9799;SDS011;4939;52.00085300;4.17406100;2023-04-25T10:45:20;6.72;;;0.75;;
9799;SDS011;4939;52.00085300;4.17406100;2023-04-25T10:47:46;5.05;;;0.68;;
9799;SDS011;4939;52.00085300;4.17406100;2023-04-25T10:50:11;5.28;;;0.88;;
9799;SDS011;4939;52.00085300;4.17406100;2023-04-25T10:52:41;8.13;;;0.90;;
9799;SDS011;4939;52.00085300;4.17406100;2023-04-25T10:55:07;4.93;;;0.80;;
9799;SDS011;4939;52.00085300;4.17406100;2023-04-25T10:57:39;8.45;;;1.10;;
9799;SDS011;4939;52.00085300;4.17406100;2023-04-25T11:00:10;7.43;;;0.80;;
9799;SDS011;4939;52.00085300;4.17406100;2023-04-25T11:02:47;4.80;;;0.70;;
9799;SDS011;4939;52.00085300;4.17406100;2023-04-25T11:05:26;8.40;;;0.98;;
9799;SDS011;4939;52.00085300;4.17406100;2023-04-25T11:08:01;5.30;;;0.85;;
9799;SDS011;4939;52.00085300;4.17406100;2023-04-25T11:10:31;5.18;;;0.70;;
9799;SDS011;4939;52.00085300;4.17406100;2023-04-25T11:13:00;5.47;;;0.80;;
9799;SDS011;4939;52.00085300;4.17406100;2023-04-25T11:15:26;7.10;;;0.88;;
9799;SDS011;4939;52.00085300;4.17406100;2023-04-25T11:17:52;5.90;;;1.25;;
9799;SDS011;4939;52.00085300;4.17406100;2023-04-25T11:20:19;4.72;;;0.88;;
9799;SDS011;4939;52.00085300;4.17406100;2023-04-25T11:22:45;5.03;;;0.60;;
9799;SDS011;4939;52.00085300;4.17406100;2023-04-25T11:25:12;3.47;;;0.70;;
9799;SDS011;4939;52.00085300;4.17406100;2023-04-25T11:28:02;3.35;;;0.63;;
9799;SDS011;4939;52.00085300;4.17406100;2023-04-25T11:30:28;4.78;;;0.98;;
9799;SDS011;4939;52.00085300;4.17406100;2023-04-25T11:32:55;4.80;;;0.77;;
9799;SDS011;4939;52.00085300;4.17406100;2023-04-25T11:35:21;6.95;;;1.67;;
9799;SDS011;4939;52.00085300;4.17406100;2023-04-25T11:37:48;3.90;;;0.90;;
9799;SDS011;4939;52.00085300;4.17406100;2023-04-25T11:40:14;3.58;;;0.98;;
9799;SDS011;4939;52.00085300;4.17406100;2023-04-25T11:42:43;4.85;;;0.90;;
9799;SDS011;4939;52.00085300;4.17406100;2023-04-25T11:45:10;5.07;;;1.10;;
9799;SDS011;4939;52.00085300;4.17406100;2023-04-25T11:47:36;8.57;;;1.05;;
9799;SDS011;4939;52.00085300;4.17406100;2023-04-25T11:50:03;9.13;;;1.23;;
9799;SDS011;4939;52.00085300;4.17406100;2023-04-25T11:52:37;5.68;;;1.00;;
9799;SDS011;4939;52.00085300;4.17406100;2023-04-25T11:55:04;5.15;;;0.82;;
9799;SDS011;4939;52.00085300;4.17406100;2023-04-25T11:57:40;2.53;;;0.90;;
9799;SDS011;4939;52.00085300;4.17406100;2023-04-25T12:00:11;3.05;;;1.35;;
9799;SDS011;4939;52.00085300;4.17406100;2023-04-25T12:02:41;5.38;;;0.70;;
9799;SDS011;4939;52.00085300;4.17406100;2023-04-25T12:05:08;6.95;;;1.20;;
9799;SDS011;4939;52.00085300;4.17406100;2023-04-25T12:07:37;7.40;;;0.80;;
9799;SDS011;4939;52.00085300;4.17406100;2023-04-25T12:12:33;5.57;;;0.80;;
9799;SDS011;4939;52.00085300;4.17406100;2023-04-25T12:17:51;1.95;;;0.55;;
9799;SDS011;4939;52.00085300;4.17406100;2023-04-25T12:20:19;4.38;;;0.90;;
9799;SDS011;4939;52.00085300;4.17406100;2023-04-25T12:22:48;5.38;;;1.00;;
9799;SDS011;4939;52.00085300;4.17406100;2023-04-25T12:28:10;3.67;;;0.73;;
9799;SDS011;4939;52.00085300;4.17406100;2023-04-25T12:33:26;2.25;;;0.70;;
9799;SDS011;4939;52.00085300;4.17406100;2023-04-25T12:35:53;4.60;;;0.93;;
9799;SDS011;4939;52.00085300;4.17406100;2023-04-25T12:40:55;8.75;;;1.15;;
9799;SDS011;4939;52.00085300;4.17406100;2023-04-25T12:43:21;3.38;;;0.80;;
9799;SDS011;4939;52.00085300;4.17406100;2023-04-25T12:45:50;4.80;;;0.80;;
9799;SDS011;4939;52.00085300;4.17406100;2023-04-25T12:48:20;3.83;;;0.60;;
9799;SDS011;4939;52.00085300;4.17406100;2023-04-25T12:50:47;4.53;;;0.70;;
9799;SDS011;4939;52.00085300;4.17406100;2023-04-25T12:53:17;3.95;;;0.90;;
9799;SDS011;4939;52.00085300;4.17406100;2023-04-25T12:55:43;3.10;;;1.30;;
9799;SDS011;4939;52.00085300;4.17406100;2023-04-25T12:58:11;6.03;;;0.80;;
9799;SDS011;4939;52.00085300;4.17406100;2023-04-25T13:00:36;4.05;;;0.70;;
9799;SDS011;4939;52.00085300;4.17406100;2023-04-25T13:03:02;4.63;;;0.80;;
9799;SDS011;4939;52.00085300;4.17406100;2023-04-25T13:05:29;5.78;;;0.73;;
9799;SDS011;4939;52.00085300;4.17406100;2023-04-25T13:07:55;8.40;;;0.93;;
9799;SDS011;4939;52.00085300;4.17406100;2023-04-25T13:10:21;4.15;;;0.95;;
9799;SDS011;4939;52.00085300;4.17406100;2023-04-25T13:12:47;5.68;;;1.05;;
9799;SDS011;4939;52.00085300;4.17406100;2023-04-25T13:15:12;4.35;;;0.70;;
9799;SDS011;4939;52.00085300;4.17406100;2023-04-25T13:17:40;5.95;;;0.88;;
9799;SDS011;4939;52.00085300;4.17406100;2023-04-25T13:20:07;7.07;;;1.10;;
9799;SDS011;4939;52.00085300;4.17406100;2023-04-25T13:22:37;6.95;;;1.10;;
9799;SDS011;4939;52.00085300;4.17406100;2023-04-25T13:25:04;5.72;;;0.93;;